sensor_id;sensor_type;location;lat;lon;timestamp;pressure;altitude;pressure_sealevel;temperature;humidity
64886;BME280;51514;52.206;5.114;2023-09-18T00:01:36;100664.25;;;22.62;64.18
64886;BME280;51514;52.206;5.114;2023-09-18T00:04:05;100665.91;;;22.63;63.89
64886;BME280;51514;52.206;5.114;2023-09-18T00:06:30;100652.41;;;22.62;64.14
64886;BME280;51514;52.206;5.114;2023-09-18T00:08:55;100648.59;;;22.63;63.85
64886;BME280;51514;52.206;5.114;2023-09-18T00:11:21;100634.00;;;22.62;64.14
64886;BME280;51514;52.206;5.114;2023-09-18T00:13:46;100629.59;;;22.61;64.02
64886;BME280;51514;52.206;5.114;2023-09-18T00:16:11;100624.09;;;22.61;64.06
64886;BME280;51514;52.206;5.114;2023-09-18T00:18:38;100618.59;;;22.61;63.91
64886;BME280;51514;52.206;5.114;2023-09-18T00:21:03;100618.59;;;22.61;63.74
64886;BME280;51514;52.206;5.114;2023-09-18T00:23:29;100602.94;;;22.62;63.82
64886;BME280;51514;52.206;5.114;2023-09-18T00:25:54;100602.94;;;22.62;64.00
64886;BME280;51514;52.206;5.114;2023-09-18T00:28:20;100607.59;;;22.61;63.98
64886;BME280;51514;52.206;5.114;2023-09-18T00:30:49;100600.47;;;22.60;64.03
64886;BME280;51514;52.206;5.114;2023-09-18T00:33:15;100598.50;;;22.61;63.86
64886;BME280;51514;52.206;5.114;2023-09-18T00:35:48;100594.97;;;22.60;64.31
64886;BME280;51514;52.206;5.114;2023-09-18T00:38:14;100582.03;;;22.61;64.18
64886;BME280;51514;52.206;5.114;2023-09-18T00:40:39;100583.97;;;22.60;64.11
64886;BME280;51514;52.206;5.114;2023-09-18T00:43:05;100585.59;;;22.61;64.08
64886;BME280;51514;52.206;5.114;2023-09-18T00:45:30;100581.22;;;22.60;64.08
64886;BME280;51514;52.206;5.114;2023-09-18T00:47:55;100577.38;;;22.61;63.91
64886;BME280;51514;52.206;5.114;2023-09-18T00:50:21;100571.88;;;22.61;63.97
64886;BME280;51514;52.206;5.114;2023-09-18T00:52:47;100555.38;;;22.61;63.83
64886;BME280;51514;52.206;5.114;2023-09-18T00:55:13;100546.06;;;22.62;64.02
64886;BME280;51514;52.206;5.114;2023-09-18T00:57:40;100540.56;;;22.62;64.16
64886;BME280;51514;52.206;5.114;2023-09-18T01:00:06;100540.56;;;22.62;64.02
64886;BME280;51514;52.206;5.114;2023-09-18T01:02:32;100536.13;;;22.61;63.71
64886;BME280;51514;52.206;5.114;2023-09-18T01:04:57;100522.41;;;22.61;63.85
64886;BME280;51514;52.206;5.114;2023-09-18T01:07:23;100514.16;;;22.61;63.76
64886;BME280;51514;52.206;5.114;2023-09-18T01:09:48;100510.31;;;22.62;63.72
64886;BME280;51514;52.206;5.114;2023-09-18T01:15:07;100497.09;;;22.59;64.23
64886;BME280;51514;52.206;5.114;2023-09-18T01:17:36;100496.03;;;22.60;63.93
64886;BME280;51514;52.206;5.114;2023-09-18T01:20:04;100492.16;;;22.61;63.92
64886;BME280;51514;52.206;5.114;2023-09-18T01:22:31;100479.53;;;22.60;63.91
64886;BME280;51514;52.206;5.114;2023-09-18T01:24:56;100481.44;;;22.60;63.70
64886;BME280;51514;52.206;5.114;2023-09-18T01:27:22;100477.88;;;22.59;63.94
64886;BME280;51514;52.206;5.114;2023-09-18T01:29:47;100467.69;;;22.60;63.73
64886;BME280;51514;52.206;5.114;2023-09-18T01:32:14;100474.03;;;22.60;63.74
64886;BME280;51514;52.206;5.114;2023-09-18T01:34:46;100470.69;;;22.58;63.83
64886;BME280;51514;52.206;5.114;2023-09-18T01:37:12;100467.69;;;22.60;63.71
64886;BME280;51514;52.206;5.114;2023-09-18T01:39:39;100466.88;;;22.59;64.04
64886;BME280;51514;52.206;5.114;2023-09-18T01:42:05;100461.38;;;22.59;63.86
64886;BME280;51514;52.206;5.114;2023-09-18T01:44:32;100461.38;;;22.59;64.05
64886;BME280;51514;52.206;5.114;2023-09-18T01:47:00;100471.28;;;22.60;63.88
64886;BME280;51514;52.206;5.114;2023-09-18T01:49:37;100475.59;;;22.56;63.85
64886;BME280;51514;52.206;5.114;2023-09-18T01:52:04;100465.78;;;22.60;64.13
64886;BME280;51514;52.206;5.114;2023-09-18T01:54:31;100449.53;;;22.58;63.76
64886;BME280;51514;52.206;5.114;2023-09-18T01:56:57;100440.22;;;22.60;64.12
64886;BME280;51514;52.206;5.114;2023-09-18T01:59:23;100433.88;;;22.59;63.80
64886;BME280;51514;52.206;5.114;2023-09-18T02:01:49;100447.63;;;22.59;64.04
64886;BME280;51514;52.206;5.114;2023-09-18T02:04:15;100450.38;;;22.59;64.05
64886;BME280;51514;52.206;5.114;2023-09-18T02:06:40;100458.03;;;22.57;64.06
64886;BME280;51514;52.206;5.114;2023-09-18T02:09:06;100460.53;;;22.58;63.94
64886;BME280;51514;52.206;5.114;2023-09-18T02:11:39;100451.69;;;22.56;63.80
64886;BME280;51514;52.206;5.114;2023-09-18T02:14:05;100456.94;;;22.58;64.13
64886;BME280;51514;52.206;5.114;2023-09-18T02:16:34;100465.19;;;22.58;63.60
64886;BME280;51514;52.206;5.114;2023-09-18T02:19:01;100465.19;;;22.58;63.78
64886;BME280;51514;52.206;5.114;2023-09-18T02:21:27;100464.34;;;22.57;63.79
64886;BME280;51514;52.206;5.114;2023-09-18T02:23:53;100465.19;;;22.58;63.68
64886;BME280;51514;52.206;5.114;2023-09-18T02:26:20;100466.03;;;22.58;63.70
64886;BME280;51514;52.206;5.114;2023-09-18T02:28:46;100456.13;;;22.57;64.08
64886;BME280;51514;52.206;5.114;2023-09-18T02:31:11;100456.13;;;22.57;63.71
64886;BME280;51514;52.206;5.114;2023-09-18T02:33:40;100447.28;;;22.55;64.11
64886;BME280;51514;52.206;5.114;2023-09-18T02:36:06;100444.28;;;22.57;63.83
64886;BME280;51514;52.206;5.114;2023-09-18T02:38:32;100439.63;;;22.57;63.92
64886;BME280;51514;52.206;5.114;2023-09-18T02:40:58;100431.38;;;22.57;64.07
64886;BME280;51514;52.206;5.114;2023-09-18T02:43:24;100427.81;;;22.57;63.80
64886;BME280;51514;52.206;5.114;2023-09-18T02:45:50;100428.88;;;22.56;63.83
64886;BME280;51514;52.206;5.114;2023-09-18T02:48:15;100428.88;;;22.56;64.03
64886;BME280;51514;52.206;5.114;2023-09-18T02:50:41;100415.97;;;22.56;63.78
64886;BME280;51514;52.206;5.114;2023-09-18T02:53:07;100401.41;;;22.56;64.00
64886;BME280;51514;52.206;5.114;2023-09-18T02:55:36;100395.06;;;22.55;64.12
64886;BME280;51514;52.206;5.114;2023-09-18T02:58:02;100398.66;;;22.56;63.81
64886;BME280;51514;52.206;5.114;2023-09-18T03:00:27;100388.75;;;22.55;64.23
64886;BME280;51514;52.206;5.114;2023-09-18T03:02:52;100378.59;;;22.55;63.79
64886;BME280;51514;52.206;5.114;2023-09-18T03:05:18;100364.84;;;22.55;63.61
64886;BME280;51514;52.206;5.114;2023-09-18T03:07:43;100344.78;;;22.55;63.85
64886;BME280;51514;52.206;5.114;2023-09-18T03:10:10;100343.09;;;22.54;63.70
64886;BME280;51514;52.206;5.114;2023-09-18T03:12:39;100334.84;;;22.54;63.77
64886;BME280;51514;52.206;5.114;2023-09-18T03:15:05;100332.09;;;22.54;63.84
64886;BME280;51514;52.206;5.114;2023-09-18T03:17:31;100329.34;;;22.54;64.07
64886;BME280;51514;52.206;5.114;2023-09-18T03:19:57;100320.28;;;22.53;64.03
64886;BME280;51514;52.206;5.114;2023-09-18T03:22:22;100324.94;;;22.53;63.97
64886;BME280;51514;52.206;5.114;2023-09-18T03:24:47;100337.59;;;22.54;64.06
64886;BME280;51514;52.206;5.114;2023-09-18T03:27:13;100336.78;;;22.53;63.86
64886;BME280;51514;52.206;5.114;2023-09-18T03:29:38;100330.44;;;22.53;64.11
64886;BME280;51514;52.206;5.114;2023-09-18T03:32:04;100315.88;;;22.52;63.80
64886;BME280;51514;52.206;5.114;2023-09-18T03:34:29;100313.97;;;22.53;63.56
64886;BME280;51514;52.206;5.114;2023-09-18T03:36:55;100324.94;;;22.53;64.05
64886;BME280;51514;52.206;5.114;2023-09-18T03:39:20;100328.78;;;22.52;64.02
64886;BME280;51514;52.206;5.114;2023-09-18T03:41:46;100331.53;;;22.52;63.92
64886;BME280;51514;52.206;5.114;2023-09-18T03:44:11;100348.84;;;22.52;63.63
64886;BME280;51514;52.206;5.114;2023-09-18T03:46:37;100345.25;;;22.52;64.05
64886;BME280;51514;52.206;5.114;2023-09-18T03:49:02;100337.84;;;22.52;63.86
64886;BME280;51514;52.206;5.114;2023-09-18T03:51:28;100336.19;;;22.51;64.14
64886;BME280;51514;52.206;5.114;2023-09-18T03:53:54;100337.84;;;22.52;63.95
64886;BME280;51514;52.206;5.114;2023-09-18T03:56:20;100333.19;;;22.53;63.85
64886;BME280;51514;52.206;5.114;2023-09-18T03:58:45;100324.34;;;22.51;63.89
64886;BME280;51514;52.206;5.114;2023-09-18T04:01:14;100324.34;;;22.51;63.89
64886;BME280;51514;52.206;5.114;2023-09-18T04:03:39;100325.19;;;22.51;63.65
64886;BME280;51514;52.206;5.114;2023-09-18T04:06:05;100317.78;;;22.52;63.70
64886;BME280;51514;52.206;5.114;2023-09-18T04:08:31;100331.53;;;22.52;63.82
64886;BME280;51514;52.206;5.114;2023-09-18T04:10:57;100326.03;;;22.52;63.93
64886;BME280;51514;52.206;5.114;2023-09-18T04:13:23;100322.69;;;22.50;63.77
64886;BME280;51514;52.206;5.114;2023-09-18T04:15:49;100327.94;;;22.51;63.79
64886;BME280;51514;52.206;5.114;2023-09-18T04:18:14;100337.25;;;22.50;63.81
64886;BME280;51514;52.206;5.114;2023-09-18T04:20:39;100323.53;;;22.50;64.26
64886;BME280;51514;52.206;5.114;2023-09-18T04:23:24;100314.97;;;22.47;64.13
64886;BME280;51514;52.206;5.114;2023-09-18T04:25:51;100296.88;;;22.51;63.83
64886;BME280;51514;52.206;5.114;2023-09-18T04:28:19;100281.47;;;22.50;63.99
64886;BME280;51514;52.206;5.114;2023-09-18T04:30:44;100275.19;;;22.49;64.28
64886;BME280;51514;52.206;5.114;2023-09-18T04:33:10;100281.47;;;22.50;63.92
64886;BME280;51514;52.206;5.114;2023-09-18T04:35:37;100308.94;;;22.50;63.88
64886;BME280;51514;52.206;5.114;2023-09-18T04:38:05;100295.22;;;22.50;64.02
64886;BME280;51514;52.206;5.114;2023-09-18T04:40:30;100286.97;;;22.50;63.80
64886;BME280;51514;52.206;5.114;2023-09-18T04:43:00;100278.72;;;22.50;63.81
64886;BME280;51514;52.206;5.114;2023-09-18T04:45:26;100245.75;;;22.50;63.81
64886;BME280;51514;52.206;5.114;2023-09-18T04:47:55;100262.53;;;22.48;63.83
64886;BME280;51514;52.206;5.114;2023-09-18T04:50:21;100250.44;;;22.49;63.75
64886;BME280;51514;52.206;5.114;2023-09-18T04:52:47;100247.69;;;22.49;64.04
64886;BME280;51514;52.206;5.114;2023-09-18T04:55:13;100230.38;;;22.49;64.20
64886;BME280;51514;52.206;5.114;2023-09-18T04:57:39;100220.22;;;22.49;63.92
64886;BME280;51514;52.206;5.114;2023-09-18T05:00:06;100213.91;;;22.49;63.89
64886;BME280;51514;52.206;5.114;2023-09-18T05:02:38;100200.16;;;22.49;63.80
64886;BME280;51514;52.206;5.114;2023-09-18T05:05:03;100215.53;;;22.50;64.09
64886;BME280;51514;52.206;5.114;2023-09-18T05:07:29;100216.66;;;22.49;63.95
64886;BME280;51514;52.206;5.114;2023-09-18T05:09:55;100213.06;;;22.48;63.82
64886;BME280;51514;52.206;5.114;2023-09-18T05:12:20;100214.97;;;22.48;64.08
64886;BME280;51514;52.206;5.114;2023-09-18T05:14:47;100223.22;;;22.48;63.96
64886;BME280;51514;52.206;5.114;2023-09-18T05:17:16;100227.03;;;22.47;64.12
64886;BME280;51514;52.206;5.114;2023-09-18T05:19:42;100241.22;;;22.39;64.29
64886;BME280;51514;52.206;5.114;2023-09-18T05:22:10;100247.34;;;22.46;64.17
64886;BME280;51514;52.206;5.114;2023-09-18T05:24:39;100253.28;;;22.38;64.33
64886;BME280;51514;52.206;5.114;2023-09-18T05:27:04;100255.00;;;22.44;63.96
64886;BME280;51514;52.206;5.114;2023-09-18T05:29:33;100264.94;;;22.45;63.82
64886;BME280;51514;52.206;5.114;2023-09-18T05:32:00;100259.19;;;22.46;64.28
64886;BME280;51514;52.206;5.114;2023-09-18T05:34:25;100263.84;;;22.46;64.27
64886;BME280;51514;52.206;5.114;2023-09-18T05:36:51;100264.69;;;22.46;63.99
64886;BME280;51514;52.206;5.114;2023-09-18T05:39:17;100279.25;;;22.47;64.23
64886;BME280;51514;52.206;5.114;2023-09-18T05:41:42;100274.84;;;22.46;64.15
64886;BME280;51514;52.206;5.114;2023-09-18T05:44:08;100276.50;;;22.47;64.01
64886;BME280;51514;52.206;5.114;2023-09-18T05:46:35;100287.50;;;22.47;64.14
64886;BME280;51514;52.206;5.114;2023-09-18T05:49:00;100292.75;;;22.48;64.17
64886;BME280;51514;52.206;5.114;2023-09-18T05:51:26;100283.66;;;22.48;63.81
64886;BME280;51514;52.206;5.114;2023-09-18T05:53:52;100282.84;;;22.47;64.02
64886;BME280;51514;52.206;5.114;2023-09-18T05:56:17;100276.25;;;22.48;63.88
64886;BME280;51514;52.206;5.114;2023-09-18T05:58:43;100283.66;;;22.48;64.09
64886;BME280;51514;52.206;5.114;2023-09-18T06:01:08;100276.25;;;22.48;64.14
64886;BME280;51514;52.206;5.114;2023-09-18T06:03:34;100267.19;;;22.48;63.99
64886;BME280;51514;52.206;5.114;2023-09-18T06:06:04;100267.19;;;22.48;63.77
64886;BME280;51514;52.206;5.114;2023-09-18T06:08:30;100272.66;;;22.48;64.04
64886;BME280;51514;52.206;5.114;2023-09-18T06:10:56;100266.09;;;22.49;64.08
64886;BME280;51514;52.206;5.114;2023-09-18T06:13:23;100272.66;;;22.48;64.14
64886;BME280;51514;52.206;5.114;2023-09-18T06:15:49;100288.09;;;22.49;63.97
64886;BME280;51514;52.206;5.114;2023-09-18T06:18:15;100280.66;;;22.49;64.09
64886;BME280;51514;52.206;5.114;2023-09-18T06:20:41;100281.75;;;22.48;63.69
64886;BME280;51514;52.206;5.114;2023-09-18T06:23:06;100293.56;;;22.49;63.99
64886;BME280;51514;52.206;5.114;2023-09-18T06:25:31;100285.34;;;22.49;63.72
64886;BME280;51514;52.206;5.114;2023-09-18T06:27:57;100279.84;;;22.49;63.74
64886;BME280;51514;52.206;5.114;2023-09-18T06:30:22;100283.66;;;22.48;63.69
64886;BME280;51514;52.206;5.114;2023-09-18T06:32:48;100276.25;;;22.48;64.09
64886;BME280;51514;52.206;5.114;2023-09-18T06:35:13;100270.75;;;22.48;64.03
64886;BME280;51514;52.206;5.114;2023-09-18T06:37:38;100276.25;;;22.48;63.83
64886;BME280;51514;52.206;5.114;2023-09-18T06:40:04;100276.25;;;22.48;64.02
64886;BME280;51514;52.206;5.114;2023-09-18T06:42:31;100268.84;;;22.49;63.81
64886;BME280;51514;52.206;5.114;2023-09-18T06:44:57;100279.84;;;22.49;63.95
64886;BME280;51514;52.206;5.114;2023-09-18T06:47:22;100272.66;;;22.48;64.01
64886;BME280;51514;52.206;5.114;2023-09-18T06:49:49;100262.53;;;22.48;64.02
64886;BME280;51514;52.206;5.114;2023-09-18T06:52:15;100249.63;;;22.49;63.99
64886;BME280;51514;52.206;5.114;2023-09-18T06:54:41;100256.19;;;22.48;64.01
64886;BME280;51514;52.206;5.114;2023-09-18T06:57:08;100268.00;;;22.48;63.84
64886;BME280;51514;52.206;5.114;2023-09-18T06:59:33;100265.25;;;22.48;63.77
64886;BME280;51514;52.206;5.114;2023-09-18T07:02:00;100273.50;;;22.48;63.75
64886;BME280;51514;52.206;5.114;2023-09-18T07:04:25;100282.59;;;22.49;63.92
64886;BME280;51514;52.206;5.114;2023-09-18T07:06:51;100279.84;;;22.49;63.75
64886;BME280;51514;52.206;5.114;2023-09-18T07:09:18;100270.47;;;22.50;64.01
64886;BME280;51514;52.206;5.114;2023-09-18T07:11:43;100261.44;;;22.49;64.12
64886;BME280;51514;52.206;5.114;2023-09-18T07:14:09;100270.47;;;22.50;64.06
64886;BME280;51514;52.206;5.114;2023-09-18T07:16:35;100270.22;;;22.51;63.99
64886;BME280;51514;52.206;5.114;2023-09-18T07:19:00;100266.66;;;22.51;63.96
64886;BME280;51514;52.206;5.114;2023-09-18T07:21:26;100262.00;;;22.51;63.85
64886;BME280;51514;52.206;5.114;2023-09-18T07:23:52;100267.25;;;22.53;63.77
64886;BME280;51514;52.206;5.114;2023-09-18T07:26:17;100266.41;;;22.52;63.86
64886;BME280;51514;52.206;5.114;2023-09-18T07:28:42;100264.50;;;22.53;64.11
64886;BME280;51514;52.206;5.114;2023-09-18T07:31:09;100266.16;;;22.54;64.03
64886;BME280;51514;52.206;5.114;2023-09-18T07:33:37;100249.66;;;22.54;64.08
64886;BME280;51514;52.206;5.114;2023-09-18T07:36:03;100253.25;;;22.54;63.97
64886;BME280;51514;52.206;5.114;2023-09-18T07:38:29;100240.09;;;22.56;64.20
64886;BME280;51514;52.206;5.114;2023-09-18T07:40:54;100237.34;;;22.56;64.02
64886;BME280;51514;52.206;5.114;2023-09-18T07:43:21;100245.34;;;22.58;64.05
64886;BME280;51514;52.206;5.114;2023-09-18T07:45:49;100250.84;;;22.58;64.30
64886;BME280;51514;52.206;5.114;2023-09-18T07:48:14;100259.69;;;22.60;64.22
64886;BME280;51514;52.206;5.114;2023-09-18T07:50:45;100269.84;;;22.60;64.22
64886;BME280;51514;52.206;5.114;2023-09-18T07:53:11;100281.66;;;22.60;64.41
64886;BME280;51514;52.206;5.114;2023-09-18T07:55:36;100283.28;;;22.61;64.32
64886;BME280;51514;52.206;5.114;2023-09-18T07:58:01;100275.06;;;22.61;64.44
64886;BME280;51514;52.206;5.114;2023-09-18T08:00:28;100285.78;;;22.63;64.50
64886;BME280;51514;52.206;5.114;2023-09-18T08:02:55;100290.22;;;22.64;64.22
64886;BME280;51514;52.206;5.114;2023-09-18T08:05:28;100299.28;;;22.64;64.61
64886;BME280;51514;52.206;5.114;2023-09-18T08:07:55;100302.47;;;22.56;65.07
64886;BME280;51514;52.206;5.114;2023-09-18T08:10:24;100311.78;;;22.55;65.30
64886;BME280;51514;52.206;5.114;2023-09-18T08:12:50;100308.88;;;22.62;64.68
64886;BME280;51514;52.206;5.114;2023-09-18T08:15:19;100304.78;;;22.64;64.49
64886;BME280;51514;52.206;5.114;2023-09-18T08:17:45;100297.13;;;22.66;64.92
64886;BME280;51514;52.206;5.114;2023-09-18T08:20:12;100298.78;;;22.67;64.75
64886;BME280;51514;52.206;5.114;2023-09-18T08:22:39;100295.81;;;22.69;64.40
64886;BME280;51514;52.206;5.114;2023-09-18T08:25:06;100303.81;;;22.70;64.73
64886;BME280;51514;52.206;5.114;2023-09-18T08:27:37;100299.13;;;22.71;64.66
64886;BME280;51514;52.206;5.114;2023-09-18T08:30:06;100304.94;;;22.74;65.04
64886;BME280;51514;52.206;5.114;2023-09-18T08:32:31;100304.72;;;22.76;64.28
64886;BME280;51514;52.206;5.114;2023-09-18T08:34:59;100317.16;;;22.78;64.44
64886;BME280;51514;52.206;5.114;2023-09-18T08:37:26;100322.97;;;22.82;64.27
64886;BME280;51514;52.206;5.114;2023-09-18T08:39:52;100316.97;;;22.85;64.53
64886;BME280;51514;52.206;5.114;2023-09-18T08:42:17;100322.78;;;22.88;63.99
64886;BME280;51514;52.206;5.114;2023-09-18T08:44:50;100323.38;;;22.90;64.57
64886;BME280;51514;52.206;5.114;2023-09-18T08:47:18;100320.09;;;22.93;64.42
64886;BME280;51514;52.206;5.114;2023-09-18T08:49:46;100324.03;;;22.98;64.81
64886;BME280;51514;52.206;5.114;2023-09-18T08:52:15;100316.94;;;23.02;64.38
64886;BME280;51514;52.206;5.114;2023-09-18T08:54:43;100321.06;;;23.04;64.34
64886;BME280;51514;52.206;5.114;2023-09-18T08:57:08;100318.09;;;23.06;64.29
64886;BME280;51514;52.206;5.114;2023-09-18T08:59:35;100321.41;;;23.08;63.85
64886;BME280;51514;52.206;5.114;2023-09-18T09:02:04;100321.75;;;23.11;63.83
64886;BME280;51514;52.206;5.114;2023-09-18T09:04:29;100322.34;;;23.13;64.27
64886;BME280;51514;52.206;5.114;2023-09-18T09:06:54;100331.97;;;23.16;64.36
64886;BME280;51514;52.206;5.114;2023-09-18T09:09:22;100341.38;;;23.20;64.33
64886;BME280;51514;52.206;5.114;2023-09-18T09:11:49;100354.66;;;23.23;64.08
64886;BME280;51514;52.206;5.114;2023-09-18T09:14:15;100356.31;;;23.24;64.20
64886;BME280;51514;52.206;5.114;2023-09-18T09:16:48;100360.72;;;23.25;63.75
64886;BME280;51514;52.206;5.114;2023-09-18T09:19:15;100353.28;;;23.25;63.81
64886;BME280;51514;52.206;5.114;2023-09-18T09:21:42;100364.03;;;23.27;63.87
64886;BME280;51514;52.206;5.114;2023-09-18T09:24:09;100345.88;;;23.26;63.76
64886;BME280;51514;52.206;5.114;2023-09-18T09:26:39;100356.63;;;23.27;64.19
64886;BME280;51514;52.206;5.114;2023-09-18T09:29:16;100356.88;;;23.26;64.17
64886;BME280;51514;52.206;5.114;2023-09-18T09:31:43;100355.78;;;23.27;63.87
64886;BME280;51514;52.206;5.114;2023-09-18T09:34:09;100361.88;;;23.29;63.96
64886;BME280;51514;52.206;5.114;2023-09-18T09:36:34;100356.38;;;23.29;63.86
64886;BME280;51514;52.206;5.114;2023-09-18T09:38:59;100366.28;;;23.30;63.98
64886;BME280;51514;52.206;5.114;2023-09-18T09:41:26;100377.28;;;23.30;63.72
64886;BME280;51514;52.206;5.114;2023-09-18T09:43:53;100382.81;;;23.30;63.88
64886;BME280;51514;52.206;5.114;2023-09-18T09:46:22;100376.72;;;23.28;64.01
64886;BME280;51514;52.206;5.114;2023-09-18T09:49:04;100378.88;;;23.26;64.17
64886;BME280;51514;52.206;5.114;2023-09-18T09:51:30;100386.03;;;23.27;63.60
64886;BME280;51514;52.206;5.114;2023-09-18T09:53:56;100393.22;;;23.28;63.49
64886;BME280;51514;52.206;5.114;2023-09-18T09:56:46;100391.25;;;23.23;63.85
64886;BME280;51514;52.206;5.114;2023-09-18T09:59:13;100399.25;;;23.25;63.58
64886;BME280;51514;52.206;5.114;2023-09-18T10:01:40;100402.81;;;23.25;63.67
64886;BME280;51514;52.206;5.114;2023-09-18T10:04:09;100395.06;;;23.22;63.56
64886;BME280;51514;52.206;5.114;2023-09-18T10:06:36;100401.41;;;23.23;63.75
64886;BME280;51514;52.206;5.114;2023-09-18T10:09:03;100391.50;;;23.22;63.80
64886;BME280;51514;52.206;5.114;2023-09-18T10:11:33;100393.16;;;23.23;63.90
64886;BME280;51514;52.206;5.114;2023-09-18T10:14:30;100393.06;;;23.18;64.10
64886;BME280;51514;52.206;5.114;2023-09-18T10:16:59;100390.41;;;23.23;63.88
64886;BME280;51514;52.206;5.114;2023-09-18T10:19:49;100383.25;;;23.22;64.07
64886;BME280;51514;52.206;5.114;2023-09-18T10:22:33;100394.56;;;23.25;64.13
64886;BME280;51514;52.206;5.114;2023-09-18T10:25:17;100394.81;;;23.24;64.19
64886;BME280;51514;52.206;5.114;2023-09-18T10:27:52;100396.75;;;23.23;64.29
64886;BME280;51514;52.206;5.114;2023-09-18T10:30:19;100395.38;;;23.26;63.91
64886;BME280;51514;52.206;5.114;2023-09-18T10:32:45;100396.22;;;23.26;63.70
64886;BME280;51514;52.206;5.114;2023-09-18T10:35:11;100397.88;;;23.27;63.89
64886;BME280;51514;52.206;5.114;2023-09-18T10:37:41;100393.22;;;23.28;63.98
64886;BME280;51514;52.206;5.114;2023-09-18T10:40:09;100394.38;;;23.32;63.83
64886;BME280;51514;52.206;5.114;2023-09-18T10:42:36;100403.53;;;23.38;63.34
64886;BME280;51514;52.206;5.114;2023-09-18T10:45:03;100390.69;;;23.43;63.72
64886;BME280;51514;52.206;5.114;2023-09-18T10:47:30;100387.16;;;23.48;63.37
64886;BME280;51514;52.206;5.114;2023-09-18T10:49:56;100385.59;;;23.52;63.66
64886;BME280;51514;52.206;5.114;2023-09-18T10:52:22;100378.50;;;23.56;63.46
64886;BME280;51514;52.206;5.114;2023-09-18T10:54:47;100379.41;;;23.61;63.10
64886;BME280;51514;52.206;5.114;2023-09-18T10:57:13;100381.66;;;23.64;63.24
64886;BME280;51514;52.206;5.114;2023-09-18T10:59:45;100377.81;;;23.65;63.56
64886;BME280;51514;52.206;5.114;2023-09-18T11:02:14;100389.94;;;23.70;63.07
64886;BME280;51514;52.206;5.114;2023-09-18T11:04:41;100385.81;;;23.67;63.68
64886;BME280;51514;52.206;5.114;2023-09-18T11:07:06;100379.00;;;23.75;63.22
64886;BME280;51514;52.206;5.114;2023-09-18T11:09:43;100390.63;;;23.77;63.20
64886;BME280;51514;52.206;5.114;2023-09-18T11:12:10;100390.06;;;23.80;63.37
64886;BME280;51514;52.206;5.114;2023-09-18T11:14:56;100377.44;;;23.79;63.66
64886;BME280;51514;52.206;5.114;2023-09-18T11:20:23;100382.72;;;23.85;63.43
64886;BME280;51514;52.206;5.114;2023-09-18T11:22:58;100378.88;;;23.86;63.63
64886;BME280;51514;52.206;5.114;2023-09-18T11:25:35;100379.22;;;23.90;63.65
64886;BME280;51514;52.206;5.114;2023-09-18T11:28:03;100372.06;;;23.94;63.13
64886;BME280;51514;52.206;5.114;2023-09-18T11:30:31;100372.88;;;23.89;63.84
64886;BME280;51514;52.206;5.114;2023-09-18T11:32:58;100372.41;;;23.97;63.49
64886;BME280;51514;52.206;5.114;2023-09-18T11:35:25;100378.25;;;24.01;63.06
64886;BME280;51514;52.206;5.114;2023-09-18T11:38:09;100373.81;;;24.00;63.15
64886;BME280;51514;52.206;5.114;2023-09-18T11:40:37;100375.28;;;24.08;62.74
64886;BME280;51514;52.206;5.114;2023-09-18T11:43:26;100374.44;;;24.07;62.89
64886;BME280;51514;52.206;5.114;2023-09-18T11:45:53;100377.22;;;24.12;62.62
64886;BME280;51514;52.206;5.114;2023-09-18T11:48:22;100384.16;;;24.15;62.42
64886;BME280;51514;52.206;5.114;2023-09-18T11:50:49;100380.88;;;24.18;62.50
64886;BME280;51514;52.206;5.114;2023-09-18T11:53:17;100378.72;;;24.20;62.59
64886;BME280;51514;52.206;5.114;2023-09-18T11:55:46;100371.28;;;24.20;62.78
64886;BME280;51514;52.206;5.114;2023-09-18T11:58:13;100372.69;;;24.23;62.47
64886;BME280;51514;52.206;5.114;2023-09-18T12:00:38;100369.69;;;24.24;62.39
64886;BME280;51514;52.206;5.114;2023-09-18T12:05:42;100355.97;;;24.29;62.07
64886;BME280;51514;52.206;5.114;2023-09-18T12:08:08;100363.72;;;24.32;62.29
64886;BME280;51514;52.206;5.114;2023-09-18T12:10:36;100351.59;;;24.33;62.45
64886;BME280;51514;52.206;5.114;2023-09-18T12:13:05;100354.91;;;24.35;62.05
64886;BME280;51514;52.206;5.114;2023-09-18T12:15:32;100358.81;;;24.40;62.02
64886;BME280;51514;52.206;5.114;2023-09-18T12:18:05;100353.31;;;24.40;62.29
64886;BME280;51514;52.206;5.114;2023-09-18T12:20:31;100359.69;;;24.45;61.92
64886;BME280;51514;52.206;5.114;2023-09-18T12:22:59;100360.50;;;24.46;62.20
64886;BME280;51514;52.206;5.114;2023-09-18T12:25:24;100361.09;;;24.48;61.93
64886;BME280;51514;52.206;5.114;2023-09-18T12:27:53;100365.50;;;24.49;61.82
64886;BME280;51514;52.206;5.114;2023-09-18T12:30:19;100366.91;;;24.51;61.98
64886;BME280;51514;52.206;5.114;2023-09-18T12:32:46;100357.28;;;24.54;61.77
64886;BME280;51514;52.206;5.114;2023-09-18T12:35:13;100361.44;;;24.56;61.74
64886;BME280;51514;52.206;5.114;2023-09-18T12:37:39;100363.94;;;24.58;61.70
64886;BME280;51514;52.206;5.114;2023-09-18T12:40:07;100360.34;;;24.57;61.67
64886;BME280;51514;52.206;5.114;2023-09-18T12:42:37;100362.25;;;24.57;61.70
64886;BME280;51514;52.206;5.114;2023-09-18T12:45:05;100363.00;;;24.47;62.47
64886;BME280;51514;52.206;5.114;2023-09-18T12:47:32;100352.28;;;24.51;62.18
64886;BME280;51514;52.206;5.114;2023-09-18T12:50:02;100345.69;;;24.52;62.58
64886;BME280;51514;52.206;5.114;2023-09-18T12:52:28;100340.75;;;24.54;62.02
64886;BME280;51514;52.206;5.114;2023-09-18T12:54:54;100339.66;;;24.55;62.06
64886;BME280;51514;52.206;5.114;2023-09-18T12:57:21;100344.06;;;24.56;61.98
64886;BME280;51514;52.206;5.114;2023-09-18T12:59:47;100330.28;;;24.56;61.85